Time,TemperatureF,DewpointF,PressureIn,WindDirection,WindDirectionDegrees,WindSpeedMPH,WindSpeedGustMPH,Humidity,HourlyPrecipIn,Conditions,Clouds,dailyrainin,SoftwareType,DateUTC
2013-09-17 00:01:00,55.4,45.8,30.19,NW,316,1.2,1.2,70,0.00,CLR,CLR,0.00,WeatherDisplay:10.36,2013-09-17 04:01:00,
2013-09-17 00:02:00,55.4,45.8,30.19,NW,316,1.2,1.2,70,0.00,CLR,CLR,0.00,WeatherDisplay:10.36,2013-09-17 04:02:00,
2013-09-17 00:07:00,55.1,45.5,30.19,NNW,332,1.2,0.0,70,0.00,CLR,CLR,0.00,WeatherDisplay:10.36,2013-09-17 04:07:00,
2013-09-17 00:12:00,55.0,45.8,30.20,NNW,327,1.2,1.2,71,0.00,CLR,CLR,0.00,WeatherDisplay:10.36,2013-09-17 04:12:00,
2013-09-17 00:17:00,54.7,45.1,30.20,NNW,327,0.0,0.0,70,0.00,CLR,CLR,0.00,WeatherDisplay:10.36,2013-09-17 04:17:00,
2013-09-17 00:22:00,54.5,45.3,30.21,NNW,327,0.0,0.0,71,0.00,CLR,CLR,0.00,WeatherDisplay:10.36,2013-09-17 04:22:00,
2013-09-17 00:27:00,54.5,44.9,30.21,NNW,328,0.0,0.0,70,0.00,CLR,CLR,0.00,WeatherDisplay:10.36,2013-09-17 04:27:00,
2013-09-17 00:32:00,54.4,44.8,30.21,NW,306,0.0,0.0,70,0.00,CLR,CLR,0.00,WeatherDisplay:10.36,2013-09-17 04:32:00,
2013-09-17 00:37:00,54.4,44.1,30.21,NW,324,3.5,0.0,68,0.00,CLR,CLR,0.00,WeatherDisplay:10.36,2013-09-17 04:37:00,
2013-09-17 00:42:00,54.4,44.1,30.22,NW,321,0.0,0.0,68,0.00,CLR,CLR,0.00,WeatherDisplay:10.36,2013-09-17 04:42:00,
2013-09-17 00:47:00,54.4,44.1,30.22,NW,321,0.0,0.0,68,0.00,CLR,CLR,0.00,WeatherDisplay:10.36,2013-09-17 04:47:00,
2013-09-17 00:52:00,54.2,43.5,30.22,NW,321,2.0,2.0,67,0.00,CLR,CLR,0.00,WeatherDisplay:10.36,2013-09-17 04:52:00,
2013-09-17 00:57:00,54.1,43.0,30.22,NW,317,1.2,1.2,66,0.00,CLR,CLR,0.00,WeatherDisplay:10.36,2013-09-17 04:57:00,
2013-09-17 01:02:00,53.9,42.4,30.22,NNW,329,3.5,3.5,65,0.00,CLR,CLR,0.00,WeatherDisplay:10.36,2013-09-17 05:02:00,
2013-09-17 01:07:00,53.6,41.7,30.23,WNW,296,3.0,3.0,64,0.00,CLR,CLR,0.00,WeatherDisplay:10.36,2013-09-17 05:07:00,
2013-09-17 01:12:00,53.3,41.4,30.23,NNW,345,0.0,0.0,64,0.00,CLR,CLR,0.00,WeatherDisplay:10.36,2013-09-17 05:12:00,
2013-09-17 01:17:00,53.1,40.8,30.23,NNW,344,0.0,0.0,63,0.00,CLR,CLR,0.00,WeatherDisplay:10.36,2013-09-17 05:17:00,
2013-09-17 01:22:00,52.9,40.6,30.23,NNW,344,1.2,0.0,63,0.00,CLR,CLR,0.00,WeatherDisplay:10.36,2013-09-17 05:22:00,
2013-09-17 01:27:00,52.6,40.4,30.23,NNW,332,1.2,1.2,63,0.00,CLR,CLR,0.00,WeatherDisplay:10.36,2013-09-17 05:27:00,
2013-09-17 01:32:00,52.3,40.1,30.23,NNW,333,0.0,0.0,63,0.00,CLR,CLR,0.00,WeatherDisplay:10.36,2013-09-17 05:32:00,
2013-09-17 01:37:00,52.2,40.0,30.23,NNW,333,1.2,1.2,63,0.00,CLR,CLR,0.00,WeatherDisplay:10.36,2013-09-17 05:37:00,
2013-09-17 01:42:00,52.0,39.8,30.23,NNW,328,1.2,1.2,63,0.00,CLR,CLR,0.00,WeatherDisplay:10.36,2013-09-17 05:42:00,
2013-09-17 01:47:00,51.7,39.5,30.23,NNW,327,1.2,1.2,63,0.00,CLR,CLR,0.00,WeatherDisplay:10.36,2013-09-17 05:47:00,
2013-09-17 01:52:00,51.6,39.4,30.24,NNW,327,0.0,0.0,63,0.00,CLR,CLR,0.00,WeatherDisplay:10.36,2013-09-17 05:52:00,
2013-09-17 01:57:00,51.4,39.6,30.24,NNW,327,0.0,0.0,64,0.00,CLR,CLR,0.00,WeatherDisplay:10.36,2013-09-17 05:57:00,
2013-09-17 02:02:00,51.3,39.5,30.24,NNW,327,0.0,0.0,64,0.00,CLR,CLR,0.00,WeatherDisplay:10.36,2013-09-17 06:02:00,
2013-09-17 02:07:00,51.1,39.3,30.25,NNW,327,1.0,0.0,64,0.00,CLR,CLR,0.00,WeatherDisplay:10.36,2013-09-17 06:07:00,
2013-09-17 02:12:00,51.0,39.2,30.25,NNW,327,0.0,0.0,64,0.00,CLR,CLR,0.00,WeatherDisplay:10.36,2013-09-17 06:12:00,
2013-09-17 02:17:00,50.8,39.5,30.25,NNW,327,0.0,0.0,65,0.00,CLR,CLR,0.00,WeatherDisplay:10.36,2013-09-17 06:17:00,
2013-09-17 02:22:00,50.7,39.4,30.25,NNW,327,0.0,0.0,65,0.00,CLR,CLR,0.00,WeatherDisplay:10.36,2013-09-17 06:22:00,
2013-09-17 02:27:00,50.5,39.2,30.25,NNW,327,0.0,0.0,65,0.00,CLR,CLR,0.00,WeatherDisplay:10.36,2013-09-17 06:27:00,
2013-09-17 02:32:00,50.4,39.1,30.25,NNW,327,0.0,0.0,65,0.00,CLR,CLR,0.00,WeatherDisplay:10.36,2013-09-17 06:32:00,
2013-09-17 02:37:00,50.2,39.3,30.25,NNW,327,0.0,0.0,66,0.00,CLR,CLR,0.00,WeatherDisplay:10.36,2013-09-17 06:37:00,
2013-09-17 02:42:00,50.1,39.2,30.25,NNW,327,1.2,1.2,66,0.00,CLR,CLR,0.00,WeatherDisplay:10.36,2013-09-17 06:42:00,
2013-09-17 02:47:00,49.9,38.6,30.25,NNW,327,0.0,0.0,65,0.00,CLR,CLR,0.00,WeatherDisplay:10.36,2013-09-17 06:47:00,
2013-09-17 02:52:00,49.8,38.9,30.26,NNW,327,0.0,0.0,66,0.00,CLR,CLR,0.00,WeatherDisplay:10.36,2013-09-17 06:52:00,
2013-09-17 02:57:00,49.6,38.7,30.26,NNW,327,0.0,0.0,66,0.00,CLR,CLR,0.00,WeatherDisplay:10.36,2013-09-17 06:57:00,
2013-09-17 03:02:00,49.6,38.7,30.26,NNW,327,0.0,0.0,66,0.00,CLR,CLR,0.00,WeatherDisplay:10.36,2013-09-17 07:02:00,
2013-09-17 03:07:00,49.5,39.0,30.26,NNW,327,0.0,0.0,67,0.00,CLR,CLR,0.00,WeatherDisplay:10.36,2013-09-17 07:07:00,
2013-09-17 03:12:00,49.4,38.5,30.26,NNW,327,0.0,0.0,66,0.00,CLR,CLR,0.00,WeatherDisplay:10.36,2013-09-17 07:12:00,
2013-09-17 03:17:00,49.2,37.9,30.26,NNW,327,0.0,0.0,65,0.00,CLR,CLR,0.00,WeatherDisplay:10.36,2013-09-17 07:17:00,
2013-09-17 03:22:00,49.2,37.9,30.26,NNW,327,0.0,0.0,65,0.00,CLR,CLR,0.00,WeatherDisplay:10.36,2013-09-17 07:22:00,
2013-09-17 03:27:00,49.2,37.5,30.26,NNW,327,0.0,0.0,64,0.00,CLR,CLR,0.00,WeatherDisplay:10.36,2013-09-17 07:27:00,
2013-09-17 03:32:00,49.2,37.1,30.26,NNW,327,0.0,0.0,63,0.00,CLR,CLR,0.00,WeatherDisplay:10.36,2013-09-17 07:32:00,
2013-09-17 03:37:00,49.2,37.1,30.26,NNW,327,0.0,0.0,63,0.00,CLR,CLR,0.00,WeatherDisplay:10.36,2013-09-17 07:37:00,
2013-09-17 03:42:00,49.2,37.1,30.26,NNW,327,0.0,0.0,63,0.00,CLR,CLR,0.00,WeatherDisplay:10.36,2013-09-17 07:42:00,
2013-09-17 03:47:00,49.1,37.4,30.26,NNW,327,0.0,0.0,64,0.00,CLR,CLR,0.00,WeatherDisplay:10.36,2013-09-17 07:47:00,
2013-09-17 03:52:00,49.1,37.4,30.26,NNW,327,0.0,0.0,64,0.00,CLR,CLR,0.00,WeatherDisplay:10.36,2013-09-17 07:52:00,
2013-09-17 03:57:00,48.9,37.3,30.26,NNW,327,0.0,0.0,64,0.00,CLR,CLR,0.00,WeatherDisplay:10.36,2013-09-17 07:57:00,
2013-09-17 04:02:00,48.8,37.2,30.26,NNW,327,1.2,1.2,64,0.00,CLR,CLR,0.00,WeatherDisplay:10.36,2013-09-17 08:02:00,
2013-09-17 04:07:00,48.8,37.2,30.26,NNW,327,1.2,0.0,64,0.00,CLR,CLR,0.00,WeatherDisplay:10.36,2013-09-17 08:07:00,
2013-09-17 04:12:00,48.8,37.2,30.26,NNW,327,0.0,0.0,64,0.00,CLR,CLR,0.00,WeatherDisplay:10.36,2013-09-17 08:12:00,
2013-09-17 04:17:00,48.6,37.0,30.26,NNW,327,1.2,0.0,64,0.00,CLR,CLR,0.00,WeatherDisplay:10.36,2013-09-17 08:17:00,
2013-09-17 04:22:00,48.6,37.0,30.26,NNW,327,0.0,0.0,64,0.00,CLR,CLR,0.00,WeatherDisplay:10.36,2013-09-17 08:22:00,
2013-09-17 04:27:00,48.5,37.3,30.26,NNW,327,0.0,0.0,65,0.00,CLR,CLR,0.00,WeatherDisplay:10.36,2013-09-17 08:27:00,
2013-09-17 04:32:00,48.5,37.3,30.26,NNW,327,0.0,0.0,65,0.00,CLR,CLR,0.00,WeatherDisplay:10.36,2013-09-17 08:32:00,
2013-09-17 04:37:00,48.5,37.3,30.27,NNW,327,0.0,0.0,65,0.00,CLR,CLR,0.00,WeatherDisplay:10.36,2013-09-17 08:37:00,
2013-09-17 04:42:00,48.3,37.5,30.27,NNW,327,0.0,0.0,66,0.00,CLR,CLR,0.00,WeatherDisplay:10.36,2013-09-17 08:42:00,
2013-09-17 04:47:00,48.3,37.5,30.27,NNW,327,0.0,0.0,66,0.00,CLR,CLR,0.00,WeatherDisplay:10.36,2013-09-17 08:47:00,
2013-09-17 04:52:00,48.2,37.4,30.27,NNW,327,0.0,0.0,66,0.00,CLR,CLR,0.00,WeatherDisplay:10.36,2013-09-17 08:52:00,
2013-09-17 04:57:00,48.0,37.9,30.27,NNW,327,0.0,0.0,68,0.00,CLR,CLR,0.00,WeatherDisplay:10.36,2013-09-17 08:57:00,
2013-09-17 05:02:00,47.9,37.8,30.27,NNW,327,0.0,0.0,68,0.00,CLR,CLR,0.00,WeatherDisplay:10.36,2013-09-17 09:02:00,
2013-09-17 05:07:00,47.7,37.7,30.28,NNW,327,0.0,0.0,68,0.00,CLR,CLR,0.00,WeatherDisplay:10.36,2013-09-17 09:07:00,
2013-09-17 05:12:00,47.6,37.9,30.28,NNW,327,0.0,0.0,69,0.00,CLR,CLR,0.00,WeatherDisplay:10.36,2013-09-17 09:12:00,
2013-09-17 05:17:00,47.4,37.7,30.28,NNW,327,0.0,0.0,69,0.00,CLR,CLR,0.00,WeatherDisplay:10.36,2013-09-17 09:17:00,
2013-09-17 05:22:00,47.3,38.0,30.28,NNW,327,0.0,0.0,70,0.00,CLR,CLR,0.00,WeatherDisplay:10.36,2013-09-17 09:22:00,
2013-09-17 05:27:00,47.1,37.8,30.28,NNW,327,0.0,0.0,70,0.00,CLR,CLR,0.00,WeatherDisplay:10.36,2013-09-17 09:27:00,
2013-09-17 05:32:00,46.8,38.2,30.28,NNW,327,0.0,0.0,72,0.00,CLR,CLR,0.00,WeatherDisplay:10.36,2013-09-17 09:32:00,
2013-09-17 05:37:00,46.5,38.3,30.29,NNW,327,0.0,0.0,73,0.00,CLR,CLR,0.00,WeatherDisplay:10.36,2013-09-17 09:37:00,
2013-09-17 05:42:00,46.2,38.0,30.29,NNW,327,0.0,0.0,73,0.00,CLR,CLR,0.00,WeatherDisplay:10.36,2013-09-17 09:42:00,
2013-09-17 05:47:00,46.0,38.2,30.29,NNW,327,0.0,0.0,74,0.00,CLR,CLR,0.00,WeatherDisplay:10.36,2013-09-17 09:47:00,
2013-09-17 05:52:00,45.8,38.3,30.29,NNW,327,0.0,0.0,75,0.00,CLR,CLR,0.00,WeatherDisplay:10.36,2013-09-17 09:52:00,
2013-09-17 05:57:00,45.7,38.2,30.30,NNW,327,0.0,0.0,75,0.00,CLR,CLR,0.00,WeatherDisplay:10.36,2013-09-17 09:57:00,
2013-09-17 06:02:00,45.7,38.2,30.30,NNW,327,0.0,0.0,75,0.00,CLR,CLR,0.00,WeatherDisplay:10.36,2013-09-17 10:02:00,
2013-09-17 06:07:00,45.5,38.4,30.31,NNW,327,0.0,0.0,76,0.00,CLR,CLR,0.00,WeatherDisplay:10.36,2013-09-17 10:07:00,
2013-09-17 06:12:00,45.4,38.3,30.31,NNW,327,0.0,0.0,76,0.00,CLR,CLR,0.00,WeatherDisplay:10.36,2013-09-17 10:12:00,
2013-09-17 06:17:00,45.2,38.1,30.31,NNW,327,0.0,0.0,76,0.00,CLR,CLR,0.00,WeatherDisplay:10.36,2013-09-17 10:17:00,
2013-09-17 06:22:00,45.2,38.1,30.31,NNW,327,0.0,0.0,76,0.00,CLR,CLR,0.00,WeatherDisplay:10.36,2013-09-17 10:22:00,
2013-09-17 06:27:00,45.2,38.1,30.31,NNW,327,0.0,0.0,76,0.00,CLR,CLR,0.00,WeatherDisplay:10.36,2013-09-17 10:27:00,
2013-09-17 06:32:00,45.2,37.7,30.31,NNW,327,0.0,0.0,75,0.00,CLR,CLR,0.00,WeatherDisplay:10.36,2013-09-17 10:32:00,
2013-09-17 06:37:00,45.2,37.7,30.32,NNW,327,0.0,0.0,75,0.00,CLR,CLR,0.00,WeatherDisplay:10.36,2013-09-17 10:37:00,
2013-09-17 06:42:00,45.2,37.7,30.32,NNW,327,0.0,0.0,75,0.00,CLR,CLR,0.00,WeatherDisplay:10.36,2013-09-17 10:42:00,
2013-09-17 06:47:00,45.2,37.7,30.32,NNW,327,0.0,0.0,75,0.00,CLR,CLR,0.00,WeatherDisplay:10.36,2013-09-17 10:47:00,
2013-09-17 06:52:00,45.4,37.6,30.32,NNW,327,0.0,0.0,74,0.00,CLR,CLR,0.00,WeatherDisplay:10.36,2013-09-17 10:52:00,
2013-09-17 06:57:00,45.4,37.6,30.32,NNW,327,0.0,0.0,74,0.00,CLR,CLR,0.00,WeatherDisplay:10.36,2013-09-17 10:57:00,
2013-09-17 07:02:00,45.5,37.7,30.32,NNW,327,0.0,0.0,74,0.00,CLR,CLR,0.00,WeatherDisplay:10.36,2013-09-17 11:02:00,
2013-09-17 07:07:00,45.7,37.5,30.33,NNW,327,0.0,0.0,73,0.00,CLR,CLR,0.00,WeatherDisplay:10.36,2013-09-17 11:07:00,
2013-09-17 07:12:00,45.8,37.6,30.33,NNW,327,0.0,0.0,73,0.00,CLR,CLR,0.00,WeatherDisplay:10.36,2013-09-17 11:12:00,
2013-09-17 07:17:00,46.0,37.8,30.33,NNW,327,0.0,0.0,73,0.00,CLR,CLR,0.00,WeatherDisplay:10.36,2013-09-17 11:17:00,
2013-09-17 07:22:00,46.0,37.8,30.33,NNW,327,0.0,0.0,73,0.00,CLR,CLR,0.00,WeatherDisplay:10.36,2013-09-17 11:22:00,
2013-09-17 07:27:00,46.1,37.9,30.33,NNW,327,0.0,0.0,73,0.00,CLR,CLR,0.00,WeatherDisplay:10.36,2013-09-17 11:27:00,
2013-09-17 07:32:00,46.2,37.7,30.34,NNW,327,0.0,0.0,72,0.00,CLR,CLR,0.00,WeatherDisplay:10.36,2013-09-17 11:32:00,
2013-09-17 07:37:00,46.4,37.9,30.34,NNW,327,1.2,0.0,72,0.00,CLR,CLR,0.00,WeatherDisplay:10.36,2013-09-17 11:37:00,
2013-09-17 07:42:00,46.5,37.6,30.34,NNW,327,0.0,0.0,71,0.00,CLR,CLR,0.00,WeatherDisplay:10.36,2013-09-17 11:42:00,
2013-09-17 07:47:00,46.8,37.9,30.34,NNW,327,2.3,2.3,71,0.00,CLR,CLR,0.00,WeatherDisplay:10.36,2013-09-17 11:47:00,
2013-09-17 07:52:00,47.0,37.7,30.34,NNW,327,1.2,1.2,70,0.00,CLR,CLR,0.00,WeatherDisplay:10.36,2013-09-17 11:52:00,
2013-09-17 07:57:00,47.3,38.0,30.34,NNW,327,2.0,2.0,70,0.00,CLR,CLR,0.00,WeatherDisplay:10.36,2013-09-17 11:57:00,
2013-09-17 08:02:00,47.6,38.3,30.34,NNW,327,0.0,0.0,70,0.00,CLR,CLR,0.00,WeatherDisplay:10.36,2013-09-17 12:02:00,
2013-09-17 08:07:00,47.9,38.6,30.34,NNW,327,1.2,0.0,70,0.00,CLR,CLR,0.00,WeatherDisplay:10.36,2013-09-17 12:07:00,
2013-09-17 08:12:00,47.9,38.2,30.34,NNW,327,0.0,0.0,69,0.00,CLR,CLR,0.00,WeatherDisplay:10.36,2013-09-17 12:12:00,
2013-09-17 08:17:00,47.9,38.2,30.34,NNW,327,0.0,0.0,69,0.00,CLR,CLR,0.00,WeatherDisplay:10.36,2013-09-17 12:17:00,
2013-09-17 08:22:00,48.3,38.2,30.35,NW,323,2.3,2.3,68,0.00,CLR,CLR,0.00,WeatherDisplay:10.36,2013-09-17 12:22:00,
2013-09-17 08:27:00,48.8,38.3,30.35,NW,323,2.3,2.3,67,0.00,CLR,CLR,0.00,WeatherDisplay:10.36,2013-09-17 12:27:00,
2013-09-17 08:32:00,48.8,38.3,30.35,NW,323,2.3,2.3,67,0.00,CLR,CLR,0.00,WeatherDisplay:10.36,2013-09-17 12:32:00,
2013-09-17 08:37:00,49.4,38.1,30.35,NW,323,0.0,0.0,65,0.00,CLR,CLR,0.00,WeatherDisplay:10.36,2013-09-17 12:37:00,
2013-09-17 08:42:00,49.6,37.9,30.35,NW,323,2.3,0.0,64,0.00,CLR,CLR,0.00,WeatherDisplay:10.36,2013-09-17 12:42:00,
2013-09-17 08:47:00,49.8,38.1,30.35,NW,323,0.0,0.0,64,0.00,CLR,CLR,0.00,WeatherDisplay:10.36,2013-09-17 12:47:00,
2013-09-17 08:52:00,50.1,38.4,30.35,NW,323,0.0,0.0,64,0.00,CLR,CLR,0.00,WeatherDisplay:10.36,2013-09-17 12:52:00,
2013-09-17 08:57:00,50.4,38.3,30.35,NW,323,0.0,0.0,63,0.00,CLR,CLR,0.00,WeatherDisplay:10.36,2013-09-17 12:57:00,
2013-09-17 09:02:00,50.5,38.0,30.35,NNW,328,0.0,0.0,62,0.00,CLR,CLR,0.00,WeatherDisplay:10.36,2013-09-17 13:02:00,
2013-09-17 09:07:00,50.8,37.4,30.35,NNW,328,1.2,0.0,60,0.00,CLR,CLR,0.00,WeatherDisplay:10.36,2013-09-17 13:07:00,
2013-09-17 09:12:00,51.3,37.4,30.35,NNW,328,1.2,0.0,59,0.00,CLR,CLR,0.00,WeatherDisplay:10.36,2013-09-17 13:12:00,
2013-09-17 09:17:00,51.4,37.1,30.36,NNW,328,2.0,2.0,58,0.00,CLR,CLR,0.00,WeatherDisplay:10.36,2013-09-17 13:17:00,
2013-09-17 09:22:00,51.6,36.9,30.36,NNW,328,0.0,0.0,57,0.00,CLR,CLR,0.00,WeatherDisplay:10.36,2013-09-17 13:22:00,
2013-09-17 09:27:00,51.7,36.9,30.36,NNW,328,0.0,0.0,57,0.00,CLR,CLR,0.00,WeatherDisplay:10.36,2013-09-17 13:27:00,
2013-09-17 09:32:00,51.9,35.8,30.36,NNW,328,0.0,0.0,54,0.00,CLR,CLR,0.00,WeatherDisplay:10.36,2013-09-17 13:32:00,
2013-09-17 09:37:00,52.0,35.9,30.36,NW,323,4.6,4.6,54,0.00,CLR,CLR,0.00,WeatherDisplay:10.36,2013-09-17 13:37:00,
2013-09-17 09:42:00,52.2,35.6,30.37,NW,323,2.3,2.3,53,0.00,CLR,CLR,0.00,WeatherDisplay:10.36,2013-09-17 13:42:00,
2013-09-17 09:47:00,52.3,34.7,30.37,NW,323,3.5,3.5,51,0.00,CLR,CLR,0.00,WeatherDisplay:10.36,2013-09-17 13:47:00,
2013-09-17 09:52:00,52.5,35.8,30.37,NW,326,0.0,0.0,53,0.00,CLR,CLR,0.00,WeatherDisplay:10.36,2013-09-17 13:52:00,
2013-09-17 09:57:00,52.8,35.6,30.37,NW,326,0.0,0.0,52,0.00,CLR,CLR,0.00,WeatherDisplay:10.36,2013-09-17 13:57:00,
2013-09-17 10:02:00,52.9,34.8,30.37,NNW,333,0.0,0.0,50,0.00,CLR,CLR,0.00,WeatherDisplay:10.36,2013-09-17 14:02:00,
2013-09-17 10:07:00,53.1,34.9,30.37,NNW,333,2.3,0.0,50,0.00,CLR,CLR,0.00,WeatherDisplay:10.36,2013-09-17 14:07:00,
2013-09-17 10:12:00,53.5,35.3,30.37,North,9,0.0,0.0,50,0.00,CLR,CLR,0.00,WeatherDisplay:10.36,2013-09-17 14:12:00,
2013-09-17 10:17:00,53.6,35.4,30.37,North,358,1.2,0.0,50,0.00,CLR,CLR,0.00,WeatherDisplay:10.36,2013-09-17 14:17:00,
2013-09-17 10:22:00,53.9,35.2,30.37,North,358,2.3,2.3,49,0.00,CLR,CLR,0.00,WeatherDisplay:10.36,2013-09-17 14:22:00,
2013-09-17 10:27:00,54.2,34.9,30.37,North,0,1.0,0.0,48,0.00,CLR,CLR,0.00,WeatherDisplay:10.36,2013-09-17 14:27:00,
2013-09-17 10:32:00,54.4,34.6,30.37,North,350,3.5,3.5,47,0.00,CLR,CLR,0.00,WeatherDisplay:10.36,2013-09-17 14:32:00,
2013-09-17 10:37:00,54.5,34.7,30.37,NW,326,1.2,0.0,47,0.00,CLR,CLR,0.00,WeatherDisplay:10.36,2013-09-17 14:37:00,
2013-09-17 10:42:00,54.5,34.7,30.37,NW,326,1.2,0.0,47,0.00,CLR,CLR,0.00,WeatherDisplay:10.36,2013-09-17 14:42:00,
2013-09-17 10:47:00,55.0,34.6,30.37,NNW,332,2.3,0.0,46,0.00,CLR,CLR,0.00,WeatherDisplay:10.36,2013-09-17 14:47:00,
2013-09-17 10:52:00,55.1,34.7,30.37,NNW,332,0.0,0.0,46,0.00,CLR,CLR,0.00,WeatherDisplay:10.36,2013-09-17 14:52:00,
2013-09-17 10:57:00,55.1,35.2,30.37,NNW,332,1.2,1.2,47,0.00,CLR,CLR,0.00,WeatherDisplay:10.36,2013-09-17 14:57:00,
2013-09-17 11:02:00,55.3,34.9,30.37,NNW,332,0.0,0.0,46,0.00,CLR,CLR,0.00,WeatherDisplay:10.36,2013-09-17 15:02:00,
2013-09-17 11:07:00,55.4,35.5,30.37,NNW,333,0.0,0.0,47,0.00,CLR,CLR,0.00,WeatherDisplay:10.36,2013-09-17 15:07:00,
2013-09-17 11:12:00,55.6,35.7,30.37,NNW,336,1.2,0.0,47,0.00,CLR,CLR,0.00,WeatherDisplay:10.36,2013-09-17 15:12:00,
2013-09-17 11:17:00,55.7,36.3,30.37,NNW,336,0.0,0.0,48,0.00,CLR,CLR,0.00,WeatherDisplay:10.36,2013-09-17 15:17:00,
2013-09-17 11:22:00,56.3,35.8,30.36,NNW,337,0.0,0.0,46,0.00,CLR,CLR,0.00,WeatherDisplay:10.36,2013-09-17 15:22:00,
2013-09-17 11:27:00,56.6,36.0,30.36,NNW,338,0.0,0.0,46,0.00,CLR,CLR,0.00,WeatherDisplay:10.36,2013-09-17 15:27:00,
2013-09-17 11:32:00,56.6,36.0,30.36,NNW,338,1.2,1.2,46,0.00,CLR,CLR,0.00,WeatherDisplay:10.36,2013-09-17 15:32:00,
2013-09-17 11:37:00,56.6,37.1,30.36,NNW,338,0.0,0.0,48,0.00,CLR,CLR,0.00,WeatherDisplay:10.36,2013-09-17 15:37:00,
2013-09-17 11:42:00,56.6,36.6,30.36,NNW,338,0.0,0.0,47,0.00,CLR,CLR,0.00,WeatherDisplay:10.36,2013-09-17 15:42:00,
2013-09-17 11:47:00,56.9,36.9,30.36,NNW,338,0.0,0.0,47,0.00,CLR,CLR,0.00,WeatherDisplay:10.36,2013-09-17 15:47:00,
2013-09-17 11:52:00,57.0,34.7,30.36,NNW,338,0.0,0.0,43,0.00,CLR,CLR,0.00,WeatherDisplay:10.36,2013-09-17 15:52:00,
2013-09-17 11:57:00,57.0,35.9,30.36,NNW,338,0.0,0.0,45,0.00,CLR,CLR,0.00,WeatherDisplay:10.36,2013-09-17 15:57:00,
2013-09-17 12:02:00,57.2,36.0,30.35,NNW,338,1.2,1.2,45,0.00,CLR,CLR,0.00,WeatherDisplay:10.36,2013-09-17 16:02:00,
2013-09-17 12:07:00,57.3,36.7,30.35,NNW,338,0.0,0.0,46,0.00,CLR,CLR,0.00,WeatherDisplay:10.36,2013-09-17 16:07:00,
2013-09-17 12:12:00,57.8,37.1,30.35,NNW,338,0.0,0.0,46,0.00,CLR,CLR,0.00,WeatherDisplay:10.36,2013-09-17 16:12:00,
2013-09-17 12:17:00,58.3,37.0,30.35,NNW,338,0.0,0.0,45,0.00,CLR,CLR,0.00,WeatherDisplay:10.36,2013-09-17 16:17:00,
2013-09-17 12:22:00,58.4,37.1,30.35,NNW,338,0.0,0.0,45,0.00,CLR,CLR,0.00,WeatherDisplay:10.36,2013-09-17 16:22:00,
2013-09-17 12:27:00,58.7,37.4,30.35,NNW,338,0.0,0.0,45,0.00,CLR,CLR,0.00,WeatherDisplay:10.36,2013-09-17 16:27:00,
2013-09-17 12:32:00,58.9,37.6,30.35,NNW,338,0.0,0.0,45,0.00,CLR,CLR,0.00,WeatherDisplay:10.36,2013-09-17 16:32:00,
2013-09-17 12:37:00,59.2,39.0,30.34,NNW,338,0.0,0.0,47,0.00,CLR,CLR,0.00,WeatherDisplay:10.36,2013-09-17 16:37:00,
2013-09-17 12:42:00,59.6,37.6,30.34,NNW,338,0.0,0.0,44,0.00,CLR,CLR,0.00,WeatherDisplay:10.36,2013-09-17 16:42:00,
2013-09-17 12:47:00,60.2,38.2,30.34,NNW,342,0.0,0.0,44,0.00,CLR,CLR,0.00,WeatherDisplay:10.36,2013-09-17 16:47:00,
2013-09-17 12:52:00,60.7,38.6,30.34,NNW,342,1.2,0.0,44,0.00,CLR,CLR,0.00,WeatherDisplay:10.36,2013-09-17 16:52:00,
2013-09-17 12:57:00,61.0,38.9,30.33,NNW,342,0.0,0.0,44,0.00,CLR,CLR,0.00,WeatherDisplay:10.36,2013-09-17 16:57:00,
2013-09-17 13:02:00,61.0,38.3,30.34,NNW,342,1.2,0.0,43,0.00,CLR,CLR,0.00,WeatherDisplay:10.36,2013-09-17 17:02:00,
2013-09-17 13:07:00,61.3,38.6,30.34,NNW,333,0.0,0.0,43,0.00,CLR,CLR,0.00,WeatherDisplay:10.36,2013-09-17 17:07:00,
2013-09-17 13:12:00,61.6,37.7,30.33,WSW,240,1.2,1.2,41,0.00,CLR,CLR,0.00,WeatherDisplay:10.36,2013-09-17 17:12:00,
2013-09-17 13:17:00,61.8,39.1,30.33,WSW,240,0.0,0.0,43,0.00,CLR,CLR,0.00,WeatherDisplay:10.36,2013-09-17 17:17:00,
2013-09-17 13:22:00,62.0,37.4,30.33,NW,319,3.5,3.5,40,0.00,CLR,CLR,0.00,WeatherDisplay:10.36,2013-09-17 17:22:00,
2013-09-17 13:27:00,62.1,37.5,30.33,WSW,251,1.2,1.2,40,0.00,CLR,CLR,0.00,WeatherDisplay:10.36,2013-09-17 17:27:00,
2013-09-17 13:32:00,62.7,39.3,30.33,WSW,251,1.2,0.0,42,0.00,CLR,CLR,0.00,WeatherDisplay:10.36,2013-09-17 17:32:00,
2013-09-17 13:37:00,63.1,40.2,30.32,West,277,3.5,3.5,43,0.00,CLR,CLR,0.00,WeatherDisplay:10.36,2013-09-17 17:37:00,
2013-09-17 13:42:00,63.4,39.3,30.32,SW,224,1.2,1.2,41,0.00,CLR,CLR,0.00,WeatherDisplay:10.36,2013-09-17 17:42:00,
2013-09-17 13:47:00,63.7,38.3,30.32,WSW,248,2.0,2.0,39,0.00,CLR,CLR,0.00,WeatherDisplay:10.36,2013-09-17 17:47:00,
2013-09-17 13:52:00,63.7,38.3,30.32,WSW,248,0.0,0.0,39,0.00,CLR,CLR,0.00,WeatherDisplay:10.36,2013-09-17 17:52:00,
2013-09-17 13:57:00,63.9,37.8,30.32,SW,228,0.0,0.2,38,0.00,CLR,CLR,0.00,WeatherDisplay:10.36,2013-09-17 17:57:00,
2013-09-17 14:02:00,64.0,38.5,30.32,WNW,301,1.2,1.2,39,0.00,CLR,CLR,0.00,WeatherDisplay:10.36,2013-09-17 18:02:00,
2013-09-17 14:07:00,64.5,39.6,30.31,WNW,299,1.2,0.0,40,0.00,CLR,CLR,0.00,WeatherDisplay:10.36,2013-09-17 18:07:00,
2013-09-17 14:12:00,64.7,39.2,30.31,NW,324,0.0,0.0,39,0.00,CLR,CLR,0.00,WeatherDisplay:10.36,2013-09-17 18:12:00,
2013-09-17 14:17:00,64.3,40.7,30.31,NW,324,2.0,2.0,42,0.00,CLR,CLR,0.00,WeatherDisplay:10.36,2013-09-17 18:17:00,
2013-09-17 14:22:00,64.2,38.7,30.31,NW,324,1.2,0.0,39,0.00,CLR,CLR,0.00,WeatherDisplay:10.36,2013-09-17 18:22:00,
2013-09-17 14:27:00,64.2,39.4,30.31,NW,324,0.0,0.0,40,0.00,CLR,CLR,0.00,WeatherDisplay:10.36,2013-09-17 18:27:00,
2013-09-17 14:32:00,64.3,40.1,30.31,NW,324,0.0,0.0,41,0.00,CLR,CLR,0.00,WeatherDisplay:10.36,2013-09-17 18:32:00,
2013-09-17 14:37:00,64.5,38.3,30.31,NW,324,1.2,0.0,38,0.00,CLR,CLR,0.00,WeatherDisplay:10.36,2013-09-17 18:37:00,
2013-09-17 14:42:00,64.7,38.5,30.31,NW,323,1.2,1.2,38,0.00,CLR,CLR,0.00,WeatherDisplay:10.36,2013-09-17 18:42:00,
2013-09-17 14:47:00,64.8,38.6,30.31,NW,323,0.0,0.0,38,0.00,CLR,CLR,0.00,WeatherDisplay:10.36,2013-09-17 18:47:00,
2013-09-17 14:52:00,64.8,38.6,30.30,NW,323,0.0,0.0,38,0.00,CLR,CLR,0.00,WeatherDisplay:10.36,2013-09-17 18:52:00,
2013-09-17 14:57:00,64.8,39.9,30.30,NW,323,2.0,2.0,40,0.00,CLR,CLR,0.00,WeatherDisplay:10.36,2013-09-17 18:57:00,
2013-09-17 15:02:00,65.2,38.9,30.30,NW,311,0.0,0.0,38,0.00,CLR,CLR,0.00,WeatherDisplay:10.36,2013-09-17 19:02:00,
2013-09-17 15:07:00,65.2,38.9,30.30,NW,315,0.0,0.0,38,0.00,CLR,CLR,0.00,WeatherDisplay:10.36,2013-09-17 19:07:00,
2013-09-17 15:12:00,65.3,40.3,30.30,NW,315,0.0,0.0,40,0.00,CLR,CLR,0.00,WeatherDisplay:10.36,2013-09-17 19:12:00,
2013-09-17 15:17:00,65.0,38.1,30.29,NW,311,0.0,0.0,37,0.00,CLR,CLR,0.00,WeatherDisplay:10.36,2013-09-17 19:17:00,
2013-09-17 15:22:00,65.3,39.0,30.29,NNW,329,2.3,2.3,38,0.00,CLR,CLR,0.00,WeatherDisplay:10.36,2013-09-17 19:22:00,
2013-09-17 15:27:00,65.8,40.1,30.29,NNW,329,0.0,0.0,39,0.00,CLR,CLR,0.00,WeatherDisplay:10.36,2013-09-17 19:27:00,
2013-09-17 15:32:00,66.0,39.0,30.29,NNW,340,0.0,0.0,37,0.00,CLR,CLR,0.00,WeatherDisplay:10.36,2013-09-17 19:32:00,
2013-09-17 15:37:00,65.2,37.6,30.29,NNE,23,1.2,1.2,36,0.00,CLR,CLR,0.00,WeatherDisplay:10.36,2013-09-17 19:37:00,
2013-09-17 15:42:00,65.3,40.3,30.29,North,0,1.2,1.2,40,0.00,CLR,CLR,0.00,WeatherDisplay:10.36,2013-09-17 19:42:00,
2013-09-17 15:47:00,65.5,39.2,30.28,North,0,1.2,1.2,38,0.00,CLR,CLR,0.00,WeatherDisplay:10.36,2013-09-17 19:47:00,
2013-09-17 15:52:00,65.8,38.8,30.28,NNW,342,3.5,3.5,37,0.00,CLR,CLR,0.00,WeatherDisplay:10.36,2013-09-17 19:52:00,
2013-09-17 15:57:00,65.8,38.8,30.28,NNW,342,0.0,0.0,37,0.00,CLR,CLR,0.00,WeatherDisplay:10.36,2013-09-17 19:57:00,
2013-09-17 16:02:00,66.0,38.3,30.28,NNW,341,0.0,0.0,36,0.00,CLR,CLR,0.00,WeatherDisplay:10.36,2013-09-17 20:02:00,
2013-09-17 16:07:00,66.1,40.4,30.28,NNW,335,0.0,0.0,39,0.00,CLR,CLR,0.00,WeatherDisplay:10.36,2013-09-17 20:07:00,
2013-09-17 16:12:00,66.1,36.9,30.28,NNW,335,0.0,0.0,34,0.00,CLR,CLR,0.00,WeatherDisplay:10.36,2013-09-17 20:12:00,
2013-09-17 16:17:00,65.6,38.6,30.28,NNW,335,0.0,0.0,37,0.00,CLR,CLR,0.00,WeatherDisplay:10.36,2013-09-17 20:17:00,
2013-09-17 16:22:00,65.6,37.2,30.29,NNW,335,0.0,0.0,35,0.00,CLR,CLR,0.00,WeatherDisplay:10.36,2013-09-17 20:22:00,
2013-09-17 16:27:00,65.6,40.0,30.29,NNW,335,1.2,1.2,39,0.00,CLR,CLR,0.00,WeatherDisplay:10.36,2013-09-17 20:27:00,
2013-09-17 16:32:00,65.8,39.5,30.29,NNW,335,0.0,0.0,38,0.00,CLR,CLR,0.00,WeatherDisplay:10.36,2013-09-17 20:32:00,
2013-09-17 16:37:00,66.0,38.3,30.28,NNW,334,1.2,0.0,36,0.00,CLR,CLR,0.00,WeatherDisplay:10.36,2013-09-17 20:37:00,
2013-09-17 16:42:00,66.1,36.9,30.28,SW,224,0.0,0.0,34,0.00,CLR,CLR,0.00,WeatherDisplay:10.36,2013-09-17 20:42:00,
2013-09-17 16:47:00,66.3,39.2,30.28,West,260,0.0,0.0,37,0.00,CLR,CLR,0.00,WeatherDisplay:10.36,2013-09-17 20:47:00,
2013-09-17 16:52:00,66.1,39.1,30.28,West,260,0.0,0.0,37,0.00,CLR,CLR,0.00,WeatherDisplay:10.36,2013-09-17 20:52:00,
2013-09-17 16:57:00,66.0,37.5,30.28,West,260,1.2,0.0,35,0.00,CLR,CLR,0.00,WeatherDisplay:10.36,2013-09-17 20:57:00,
2013-09-17 17:02:00,66.0,38.3,30.28,West,260,0.0,0.0,36,0.00,CLR,CLR,0.00,WeatherDisplay:10.36,2013-09-17 21:02:00,
2013-09-17 17:07:00,66.1,38.4,30.28,West,260,0.0,0.0,36,0.00,CLR,CLR,0.00,WeatherDisplay:10.36,2013-09-17 21:07:00,
2013-09-17 17:12:00,66.4,37.2,30.28,West,260,1.2,0.0,34,0.00,CLR,CLR,0.00,WeatherDisplay:10.36,2013-09-17 21:12:00,
2013-09-17 17:17:00,66.4,38.6,30.28,SW,214,1.2,1.2,36,0.00,CLR,CLR,0.00,WeatherDisplay:10.36,2013-09-17 21:17:00,
2013-09-17 17:22:00,66.1,38.4,30.28,SW,215,0.0,0.0,36,0.00,CLR,CLR,0.00,WeatherDisplay:10.36,2013-09-17 21:22:00,
2013-09-17 17:27:00,65.6,38.6,30.28,SW,229,3.5,3.5,37,0.00,CLR,CLR,0.00,WeatherDisplay:10.36,2013-09-17 21:27:00,
2013-09-17 17:32:00,65.6,37.9,30.28,West,281,3.5,3.5,36,0.00,CLR,CLR,0.00,WeatherDisplay:10.36,2013-09-17 21:32:00,
2013-09-17 17:37:00,65.3,39.0,30.28,West,281,0.0,0.0,38,0.00,CLR,CLR,0.00,WeatherDisplay:10.36,2013-09-17 21:37:00,
2013-09-17 17:42:00,64.8,39.9,30.28,West,281,0.0,0.0,40,0.00,CLR,CLR,0.00,WeatherDisplay:10.36,2013-09-17 21:42:00,
2013-09-17 17:47:00,64.3,38.8,30.28,WNW,284,1.2,1.2,39,0.00,CLR,CLR,0.00,WeatherDisplay:10.36,2013-09-17 21:47:00,
2013-09-17 17:52:00,63.9,39.1,30.28,WNW,284,0.0,0.0,40,0.00,CLR,CLR,0.00,WeatherDisplay:10.36,2013-09-17 21:52:00,
2013-09-17 17:57:00,63.4,38.6,30.28,NW,318,1.2,0.0,40,0.00,CLR,CLR,0.00,WeatherDisplay:10.36,2013-09-17 21:57:00,
2013-09-17 18:02:00,63.1,39.6,30.28,NW,318,0.0,0.0,42,0.00,CLR,CLR,0.00,WeatherDisplay:10.36,2013-09-17 22:02:00,
2013-09-17 18:07:00,62.9,40.6,30.28,NW,318,0.0,0.0,44,0.00,CLR,CLR,0.00,WeatherDisplay:10.36,2013-09-17 22:07:00,
2013-09-17 18:12:00,62.6,40.4,30.28,NW,318,0.0,0.0,44,0.00,CLR,CLR,0.00,WeatherDisplay:10.36,2013-09-17 22:12:00,
2013-09-17 18:17:00,62.4,40.8,30.28,NW,318,0.0,0.0,45,0.00,CLR,CLR,0.00,WeatherDisplay:10.36,2013-09-17 22:17:00,
2013-09-17 18:22:00,62.3,40.1,30.28,NW,318,1.2,0.0,44,0.00,CLR,CLR,0.00,WeatherDisplay:10.36,2013-09-17 22:22:00,
2013-09-17 18:27:00,62.0,40.4,30.28,NW,318,0.0,0.0,45,0.00,CLR,CLR,0.00,WeatherDisplay:10.36,2013-09-17 22:27:00,
2013-09-17 18:32:00,61.8,40.2,30.28,NW,318,0.0,0.0,45,0.00,CLR,CLR,0.00,WeatherDisplay:10.36,2013-09-17 22:32:00,
2013-09-17 18:37:00,61.5,41.1,30.28,NW,318,0.0,0.0,47,0.00,CLR,CLR,0.00,WeatherDisplay:10.36,2013-09-17 22:37:00,
2013-09-17 18:42:00,61.3,41.4,30.28,NW,318,0.0,0.0,48,0.00,CLR,CLR,0.00,WeatherDisplay:10.36,2013-09-17 22:42:00,
2013-09-17 18:47:00,61.0,42.2,30.27,NW,318,0.0,0.0,50,0.00,CLR,CLR,0.00,WeatherDisplay:10.36,2013-09-17 22:47:00,
2013-09-17 18:52:00,60.7,42.5,30.27,NW,318,0.0,0.0,51,0.00,CLR,CLR,0.00,WeatherDisplay:10.36,2013-09-17 22:52:00,
2013-09-17 18:57:00,60.4,42.7,30.27,NW,318,0.0,0.0,52,0.00,CLR,CLR,0.00,WeatherDisplay:10.36,2013-09-17 22:57:00,
2013-09-17 19:02:00,60.1,42.9,30.28,NW,318,0.0,0.0,53,0.00,CLR,CLR,0.00,WeatherDisplay:10.36,2013-09-17 23:02:00,
2013-09-17 19:07:00,59.8,43.1,30.27,NW,318,0.0,0.0,54,0.00,CLR,CLR,0.00,WeatherDisplay:10.36,2013-09-17 23:07:00,
2013-09-17 19:12:00,59.5,42.8,30.27,NW,318,0.0,0.0,54,0.00,CLR,CLR,0.00,WeatherDisplay:10.36,2013-09-17 23:12:00,
2013-09-17 19:17:00,59.2,43.0,30.27,NW,318,0.0,0.0,55,0.00,CLR,CLR,0.00,WeatherDisplay:10.36,2013-09-17 23:17:00,
2013-09-17 19:22:00,58.7,44.0,30.27,NW,318,0.0,0.0,58,0.00,CLR,CLR,0.00,WeatherDisplay:10.36,2013-09-17 23:22:00,
2013-09-17 19:27:00,58.3,43.1,30.27,NW,318,0.0,0.0,57,0.00,CLR,CLR,0.00,WeatherDisplay:10.36,2013-09-17 23:27:00,
2013-09-17 19:32:00,58.1,43.4,30.27,NW,318,0.0,0.0,58,0.00,CLR,CLR,0.00,WeatherDisplay:10.36,2013-09-17 23:32:00,
2013-09-17 19:37:00,57.8,43.1,30.27,NW,318,0.0,0.0,58,0.00,CLR,CLR,0.00,WeatherDisplay:10.36,2013-09-17 23:37:00,
2013-09-17 19:42:00,57.5,43.7,30.27,NW,318,0.0,0.0,60,0.00,CLR,CLR,0.00,WeatherDisplay:10.36,2013-09-17 23:42:00,
2013-09-17 19:47:00,57.2,44.3,30.27,NW,318,0.0,0.0,62,0.00,CLR,CLR,0.00,WeatherDisplay:10.36,2013-09-17 23:47:00,
2013-09-17 19:52:00,56.7,43.8,30.27,NW,318,0.0,0.0,62,0.00,CLR,CLR,0.00,WeatherDisplay:10.36,2013-09-17 23:52:00,
2013-09-17 19:57:00,56.5,44.0,30.27,NW,318,0.0,0.0,63,0.00,CLR,CLR,0.00,WeatherDisplay:10.36,2013-09-17 23:57:00,
2013-09-17 20:02:00,56.0,45.2,30.28,NW,318,0.0,0.0,67,0.00,CLR,CLR,0.00,WeatherDisplay:10.36,2013-09-18 00:02:00,
2013-09-17 20:07:00,55.6,45.2,30.28,NW,318,0.0,0.0,68,0.00,CLR,CLR,0.00,WeatherDisplay:10.36,2013-09-18 00:07:00,
2013-09-17 20:12:00,55.1,45.1,30.28,NW,318,0.0,0.0,69,0.00,CLR,CLR,0.00,WeatherDisplay:10.36,2013-09-18 00:12:00,
2013-09-17 20:17:00,54.8,44.8,30.28,NW,318,0.0,0.0,69,0.00,CLR,CLR,0.00,WeatherDisplay:10.36,2013-09-18 00:17:00,
2013-09-17 20:22:00,54.5,44.9,30.28,NW,318,0.0,0.0,70,0.00,CLR,CLR,0.00,WeatherDisplay:10.36,2013-09-18 00:22:00,
2013-09-17 20:27:00,54.2,45.0,30.28,NW,318,0.0,0.0,71,0.00,CLR,CLR,0.00,WeatherDisplay:10.36,2013-09-18 00:27:00,
2013-09-17 20:32:00,53.9,44.7,30.28,NW,318,0.0,0.0,71,0.00,CLR,CLR,0.00,WeatherDisplay:10.36,2013-09-18 00:32:00,
2013-09-17 20:37:00,53.6,44.8,30.28,NW,318,0.0,0.0,72,0.00,CLR,CLR,0.00,WeatherDisplay:10.36,2013-09-18 00:37:00,
2013-09-17 20:42:00,53.5,44.7,30.28,NW,318,0.0,0.0,72,0.00,CLR,CLR,0.00,WeatherDisplay:10.36,2013-09-18 00:42:00,
2013-09-17 20:47:00,53.3,44.5,30.28,NW,318,0.0,0.0,72,0.00,CLR,CLR,0.00,WeatherDisplay:10.36,2013-09-18 00:47:00,
2013-09-17 20:52:00,53.2,44.8,30.28,NW,318,0.0,0.0,73,0.00,CLR,CLR,0.00,WeatherDisplay:10.36,2013-09-18 00:52:00,
2013-09-17 20:57:00,52.9,45.2,30.28,NW,318,0.0,0.0,75,0.00,CLR,CLR,0.00,WeatherDisplay:10.36,2013-09-18 00:57:00,
2013-09-17 21:02:00,52.8,45.1,30.28,NW,318,0.0,0.0,75,0.00,CLR,CLR,0.00,WeatherDisplay:10.36,2013-09-18 01:02:00,
2013-09-17 21:07:00,52.5,45.2,30.28,NW,318,0.0,0.0,76,0.00,CLR,CLR,0.00,WeatherDisplay:10.36,2013-09-18 01:07:00,
2013-09-17 21:12:00,52.2,45.2,30.29,NW,318,0.0,0.0,77,0.00,CLR,CLR,0.00,WeatherDisplay:10.36,2013-09-18 01:12:00,
2013-09-17 21:17:00,51.9,45.3,30.29,NW,318,0.0,0.0,78,0.00,CLR,CLR,0.00,WeatherDisplay:10.36,2013-09-18 01:17:00,
2013-09-17 21:22:00,51.7,45.4,30.29,NW,318,0.0,0.0,79,0.00,CLR,CLR,0.00,WeatherDisplay:10.36,2013-09-18 01:22:00,
2013-09-17 21:27:00,51.6,45.3,30.29,NW,318,0.0,0.0,79,0.00,CLR,CLR,0.00,WeatherDisplay:10.36,2013-09-18 01:27:00,
2013-09-17 21:32:00,51.6,45.3,30.28,NW,318,0.0,0.0,79,0.00,CLR,CLR,0.00,WeatherDisplay:10.36,2013-09-18 01:32:00,
2013-09-17 21:37:00,51.6,45.3,30.28,NW,318,0.0,0.0,79,0.00,CLR,CLR,0.00,WeatherDisplay:10.36,2013-09-18 01:37:00,
2013-09-17 21:42:00,51.4,45.1,30.28,NW,318,0.0,0.0,79,0.00,CLR,CLR,0.00,WeatherDisplay:10.36,2013-09-18 01:42:00,
2013-09-17 21:47:00,51.4,45.1,30.28,NW,318,0.0,0.0,79,0.00,CLR,CLR,0.00,WeatherDisplay:10.36,2013-09-18 01:47:00,
2013-09-17 21:52:00,51.4,45.4,30.28,NW,318,0.0,0.0,80,0.00,CLR,CLR,0.00,WeatherDisplay:10.36,2013-09-18 01:52:00,
2013-09-17 21:57:00,51.4,45.4,30.28,NW,318,0.0,0.0,80,0.00,CLR,CLR,0.00,WeatherDisplay:10.36,2013-09-18 01:57:00,
2013-09-17 22:02:00,51.3,45.3,30.28,NW,318,0.0,0.0,80,0.00,CLR,CLR,0.00,WeatherDisplay:10.36,2013-09-18 02:02:00,
2013-09-17 22:07:00,51.1,45.5,30.28,NW,318,0.0,0.0,81,0.00,CLR,CLR,0.00,WeatherDisplay:10.36,2013-09-18 02:07:00,
2013-09-17 22:12:00,51.0,45.4,30.28,NW,318,0.0,0.0,81,0.00,CLR,CLR,0.00,WeatherDisplay:10.36,2013-09-18 02:12:00,
2013-09-17 22:18:00,50.8,45.5,30.28,NW,318,0.0,0.0,82,0.00,CLR,CLR,0.00,WeatherDisplay:10.36,2013-09-18 02:18:00,
2013-09-17 22:23:00,50.7,45.4,30.28,NW,318,0.0,0.0,82,0.00,CLR,CLR,0.00,WeatherDisplay:10.36,2013-09-18 02:23:00,
2013-09-17 22:28:00,50.5,45.2,30.28,NW,318,0.0,0.0,82,0.00,CLR,CLR,0.00,WeatherDisplay:10.36,2013-09-18 02:28:00,
2013-09-17 22:33:00,50.4,45.4,30.28,NW,318,0.0,0.0,83,0.00,CLR,CLR,0.00,WeatherDisplay:10.36,2013-09-18 02:33:00,
2013-09-17 22:38:00,50.4,45.4,30.29,NW,318,0.0,0.0,83,0.00,CLR,CLR,0.00,WeatherDisplay:10.36,2013-09-18 02:38:00,
2013-09-17 22:43:00,50.2,45.2,30.29,NW,318,0.0,0.0,83,0.00,CLR,CLR,0.00,WeatherDisplay:10.36,2013-09-18 02:43:00,
2013-09-17 22:48:00,50.2,45.2,30.29,NW,318,0.0,0.0,83,0.00,CLR,CLR,0.00,WeatherDisplay:10.36,2013-09-18 02:48:00,
2013-09-17 22:53:00,50.1,45.1,30.29,NW,318,0.0,0.0,83,0.00,CLR,CLR,0.00,WeatherDisplay:10.36,2013-09-18 02:53:00,
2013-09-17 22:58:00,50.1,45.1,30.29,NW,318,0.0,0.0,83,0.00,CLR,CLR,0.00,WeatherDisplay:10.36,2013-09-18 02:58:00,
2013-09-17 23:03:00,50.1,45.5,30.29,NW,318,0.0,0.0,84,0.00,CLR,CLR,0.00,WeatherDisplay:10.36,2013-09-18 03:03:00,
2013-09-17 23:08:00,49.9,45.3,30.29,NW,318,0.0,0.0,84,0.00,CLR,CLR,0.00,WeatherDisplay:10.36,2013-09-18 03:08:00,
2013-09-17 23:13:00,49.8,45.2,30.29,NW,318,0.0,0.0,84,0.00,CLR,CLR,0.00,WeatherDisplay:10.36,2013-09-18 03:13:00,
2013-09-17 23:18:00,49.6,45.0,30.29,NW,318,0.0,0.0,84,0.00,CLR,CLR,0.00,WeatherDisplay:10.36,2013-09-18 03:18:00,
2013-09-17 23:23:00,49.5,45.2,30.29,NW,318,0.0,0.0,85,0.00,CLR,CLR,0.00,WeatherDisplay:10.36,2013-09-18 03:23:00,
2013-09-17 23:28:00,49.5,45.2,30.29,NW,318,0.0,0.0,85,0.00,CLR,CLR,0.00,WeatherDisplay:10.36,2013-09-18 03:28:00,
2013-09-17 23:33:00,49.5,45.5,30.29,NW,318,0.0,0.0,86,0.00,CLR,CLR,0.00,WeatherDisplay:10.36,2013-09-18 03:33:00,
2013-09-17 23:38:00,49.5,45.5,30.29,NW,318,0.0,0.0,86,0.00,CLR,CLR,0.00,WeatherDisplay:10.36,2013-09-18 03:38:00,
2013-09-17 23:43:00,49.4,45.4,30.29,NW,318,0.0,0.0,86,0.00,CLR,CLR,0.00,WeatherDisplay:10.36,2013-09-18 03:43:00,
2013-09-17 23:48:00,49.2,45.2,30.28,NW,318,0.0,0.0,86,0.00,CLR,CLR,0.00,WeatherDisplay:10.36,2013-09-18 03:48:00,
2013-09-17 23:53:00,49.1,45.1,30.29,NW,318,0.0,0.0,86,0.00,CLR,CLR,0.00,WeatherDisplay:10.36,2013-09-18 03:53:00,
2013-09-17 23:58:00,48.9,45.2,30.29,NW,318,0.0,0.0,87,0.00,CLR,CLR,0.00,WeatherDisplay:10.36,2013-09-18 03:58:00,